Pinnacles, California
Current Conditions -  °F | °C
As of 8:53 PM on Saturday 25 Oct 2014 (Local Time) from KSNS Reporting Station
Clear Clear  
Wind Chill: 62°   Ceiling: Unl
Heat Index: 62°   Visibility: 10mi
Dew Point: 54°   Wind: 5mph
Humidity: 75%   Direction: 230°SW
Pressure: 30.11"   Gusts: NA
Location:  36.4824°N, 120.948°W
Report Text: KSNS 260353Z 23004KT 10SM CLR 17/12 A3011 RMK AO2 SLP206 T01670122
Loading
Personal Weather Stations






























Interactive Weather Map
Tropical Storm Tracking
New forecast layout! Learn more

10-Day Weather Forecast

Advertisements
Track Severe Weather on mobile